createdAt,value
2023-05-25T00:01:49.714Z,100922.97
2023-05-25T00:04:38.325Z,100919.38
2023-05-25T00:07:24.634Z,100914.75
2023-05-25T00:10:10.631Z,100915.44
2023-05-25T00:12:57.019Z,100920.66
2023-05-25T00:15:43.484Z,100918.56
2023-05-25T00:18:29.781Z,100918.44
2023-05-25T00:21:17.002Z,100914.69
2023-05-25T00:24:03.145Z,100917.47
2023-05-25T00:26:49.329Z,100913.28
2023-05-25T00:29:36.213Z,100918.59
2023-05-25T00:32:22.829Z,100916.75
2023-05-25T00:35:09.927Z,100914.47
2023-05-25T00:37:57.357Z,100911.19
2023-05-25T00:40:50.482Z,100911.75
2023-05-25T00:43:46.144Z,100910.81
2023-05-25T00:47:05.046Z,100913.00
2023-05-25T00:49:57.586Z,100915.72
2023-05-25T00:53:27.505Z,100910.63
2023-05-25T00:56:25.517Z,100909.72
2023-05-25T00:59:44.612Z,100909.03
2023-05-25T01:02:39.295Z,100914.91
2023-05-25T01:05:50.140Z,100915.34
2023-05-25T01:08:40.539Z,100907.66
2023-05-25T01:15:21.840Z,100915.66
2023-05-25T01:21:30.471Z,100916.38
2023-05-25T01:24:30.798Z,100915.44
2023-05-25T01:27:27.924Z,100914.94
2023-05-25T01:30:20.677Z,100915.53
2023-05-25T01:33:13.168Z,100912.00
2023-05-25T01:36:07.180Z,100906.97
2023-05-25T01:39:01.604Z,100905.44
2023-05-25T01:41:54.385Z,100905.84
2023-05-25T01:44:47.253Z,100914.59
2023-05-25T01:47:46.707Z,100914.84
2023-05-25T01:50:44.627Z,100909.81
2023-05-25T01:53:44.196Z,100908.81
2023-05-25T01:56:39.429Z,100916.44
2023-05-25T01:59:32.596Z,100909.75
2023-05-25T02:02:26.228Z,100915.81
2023-05-25T02:05:20.828Z,100921.44
2023-05-25T02:08:13.424Z,100915.34
2023-05-25T02:11:34.565Z,100911.81
2023-05-25T02:14:28.578Z,100910.66
2023-05-25T02:17:20.944Z,100918.84
2023-05-25T02:20:14.065Z,100920.78
2023-05-25T02:23:07.085Z,100921.91
2023-05-25T02:26:28.382Z,100927.03
2023-05-25T02:29:21.400Z,100919.34
2023-05-25T02:32:16.108Z,100924.75
2023-05-25T02:35:46.631Z,100921.47
2023-05-25T02:38:39.222Z,100918.34
2023-05-25T02:41:46.647Z,100913.53
2023-05-25T02:44:39.140Z,100911.44
2023-05-25T02:51:20.995Z,100916.69
2023-05-25T02:57:31.574Z,100926.72
2023-05-25T03:03:41.664Z,100928.38
2023-05-25T03:06:36.451Z,100929.28
2023-05-25T03:09:38.593Z,100929.97
2023-05-25T03:12:31.379Z,100932.56
2023-05-25T03:15:49.385Z,100944.97
2023-05-25T03:18:42.145Z,100944.66
2023-05-25T03:21:50.019Z,100943.97
2023-05-25T03:24:43.804Z,100944.06
2023-05-25T03:27:36.472Z,100946.13
2023-05-25T03:30:29.616Z,100946.91
2023-05-25T03:36:34.821Z,100948.34
2023-05-25T03:39:27.421Z,100948.16
2023-05-25T03:45:34.958Z,100949.22
2023-05-25T03:48:27.530Z,100949.22
2023-05-25T03:51:17.371Z,100959.94
2023-05-25T03:54:11.449Z,100962.66
2023-05-25T03:57:04.329Z,100960.88
2023-05-25T03:59:57.404Z,100957.00
2023-05-25T04:02:52.019Z,100963.38
2023-05-25T04:05:46.609Z,100966.94
2023-05-25T04:08:40.917Z,100968.56
2023-05-25T04:11:33.508Z,100971.25
2023-05-25T04:14:26.743Z,100979.88
2023-05-25T04:17:22.032Z,100981.22
2023-05-25T04:20:15.700Z,100973.25
2023-05-25T04:23:08.090Z,100972.41
2023-05-25T04:26:01.226Z,100977.50
2023-05-25T04:28:55.780Z,100972.31
2023-05-25T04:32:09.715Z,100974.84
2023-05-25T04:38:38.586Z,100967.25
2023-05-25T04:41:33.841Z,100978.91
2023-05-25T04:44:29.852Z,100978.09
2023-05-25T04:47:24.785Z,100987.63
2023-05-25T04:50:18.519Z,100984.63
2023-05-25T04:56:25.655Z,100997.31
2023-05-25T04:59:18.047Z,100997.75
2023-05-25T05:02:08.312Z,101002.44
2023-05-25T05:05:01.507Z,101002.78
2023-05-25T05:07:54.789Z,101003.34
2023-05-25T05:10:48.186Z,101006.88
2023-05-25T05:13:42.517Z,101005.38
2023-05-25T05:16:35.285Z,101008.59
2023-05-25T05:19:28.165Z,101020.94
2023-05-25T05:22:21.188Z,101018.44
2023-05-25T05:25:14.391Z,101018.78
2023-05-25T05:31:25.324Z,101028.63
2023-05-25T05:34:18.462Z,101021.25
2023-05-25T05:37:11.583Z,101027.28
2023-05-25T05:40:05.303Z,101036.47
2023-05-25T05:42:58.019Z,101042.00
2023-05-25T05:45:50.324Z,101048.19
2023-05-25T05:52:13.514Z,101054.97
2023-05-25T05:55:07.658Z,101058.47
2023-05-25T05:58:02.113Z,101056.41
2023-05-25T06:00:56.225Z,101062.75
2023-05-25T06:03:49.256Z,101069.38
2023-05-25T06:06:43.190Z,101065.94
2023-05-25T06:09:37.674Z,101067.41
2023-05-25T06:13:02.154Z,101073.38
2023-05-25T06:15:55.396Z,101074.44
2023-05-25T06:18:50.253Z,101079.44
2023-05-25T06:21:44.516Z,101073.78
2023-05-25T06:27:52.904Z,101081.69
2023-05-25T06:30:46.230Z,101088.81
2023-05-25T06:33:45.241Z,101095.09
2023-05-25T06:36:38.341Z,101089.81
2023-05-25T06:39:31.290Z,101093.22
2023-05-25T06:45:46.868Z,101100.78
2023-05-25T06:52:01.576Z,101108.81
2023-05-25T06:54:54.263Z,101101.00
2023-05-25T06:57:47.168Z,101102.16
2023-05-25T07:00:40.387Z,101094.13
2023-05-25T07:03:34.746Z,101104.56
2023-05-25T07:06:27.442Z,101094.00
2023-05-25T07:09:21.358Z,101101.03
2023-05-25T07:12:14.576Z,101102.13
2023-05-25T07:15:08.963Z,101109.47
2023-05-25T07:18:01.313Z,101106.44
2023-05-25T07:20:55.755Z,101108.84
2023-05-25T07:23:48.408Z,101109.72
2023-05-25T07:26:41.268Z,101109.38
2023-05-25T07:29:34.208Z,101110.56
2023-05-25T07:32:27.295Z,101113.25
2023-05-25T07:35:20.283Z,101103.63
2023-05-25T07:38:14.829Z,101118.66
2023-05-25T07:41:07.421Z,101114.44
2023-05-25T07:44:00.434Z,101121.88
2023-05-25T07:46:53.361Z,101124.19
2023-05-25T07:49:46.165Z,101128.19
2023-05-25T07:52:39.473Z,101123.69
2023-05-25T07:55:33.523Z,101126.13
2023-05-25T07:58:35.441Z,101126.41
2023-05-25T08:01:28.701Z,101135.31
2023-05-25T08:04:21.278Z,101141.69
2023-05-25T08:07:13.996Z,101133.38
2023-05-25T08:10:06.683Z,101137.41
2023-05-25T08:13:00.756Z,101140.47
2023-05-25T08:15:53.682Z,101134.03
2023-05-25T08:18:46.688Z,101145.75
2023-05-25T08:21:41.202Z,101139.50
2023-05-25T08:24:34.362Z,101156.72
2023-05-25T08:27:27.501Z,101149.72
2023-05-25T08:30:34.360Z,101139.50
2023-05-25T08:33:28.806Z,101145.16
2023-05-25T08:36:21.066Z,101151.66
2023-05-25T08:39:13.182Z,101143.97
2023-05-25T08:42:07.948Z,101149.75
2023-05-25T08:45:02.219Z,101141.59
2023-05-25T08:48:00.106Z,101141.91
2023-05-25T08:50:54.709Z,101149.84
2023-05-25T08:53:47.513Z,101151.66
2023-05-25T08:56:43.290Z,101140.38
2023-05-25T08:59:41.313Z,101142.91
2023-05-25T09:02:37.082Z,101146.44
2023-05-25T09:05:30.537Z,101163.03
2023-05-25T09:08:25.383Z,101153.56
2023-05-25T09:11:26.584Z,101161.34
2023-05-25T09:14:27.100Z,101147.78
2023-05-25T09:17:19.884Z,101151.66
2023-05-25T09:20:13.849Z,101154.06
2023-05-25T09:23:07.643Z,101155.31
2023-05-25T09:26:02.131Z,101148.81
2023-05-25T09:28:55.394Z,101152.69
2023-05-25T09:31:48.502Z,101155.50
2023-05-25T09:34:44.108Z,101157.81
2023-05-25T09:37:37.164Z,101151.06
2023-05-25T09:40:31.585Z,101146.19
2023-05-25T09:43:39.502Z,101151.75
2023-05-25T09:46:36.804Z,101163.19
2023-05-25T09:49:29.910Z,101156.00
2023-05-25T09:52:22.827Z,101162.63
2023-05-25T09:55:16.329Z,101165.63
2023-05-25T09:58:09.494Z,101168.94
2023-05-25T10:01:04.558Z,101173.50
2023-05-25T10:04:04.292Z,101175.59
2023-05-25T10:06:57.859Z,101166.34
2023-05-25T10:13:36.680Z,101170.03
2023-05-25T10:16:31.380Z,101164.22
2023-05-25T10:19:29.865Z,101163.38
2023-05-25T10:22:28.559Z,101166.00
2023-05-25T10:25:25.711Z,101170.00
2023-05-25T10:28:28.130Z,101170.09
2023-05-25T10:34:28.227Z,101179.91
2023-05-25T10:37:15.385Z,101180.91
2023-05-25T10:40:02.459Z,101177.44
2023-05-25T10:42:48.745Z,101172.56
2023-05-25T10:45:35.179Z,101176.06
2023-05-25T10:51:40.497Z,101170.06
2023-05-25T10:54:30.283Z,101169.22
2023-05-25T10:57:19.779Z,101165.75
2023-05-25T11:00:08.713Z,101174.88
2023-05-25T11:02:56.374Z,101171.94
2023-05-25T11:05:42.589Z,101171.03
2023-05-25T11:08:49.682Z,101166.34
2023-05-25T11:12:04.900Z,101167.91
2023-05-25T11:15:11.693Z,101182.50
2023-05-25T11:18:04.514Z,101179.41
2023-05-25T11:21:12.373Z,101171.88
2023-05-25T11:24:14.612Z,101169.38
2023-05-25T11:27:08.800Z,101169.44
2023-05-25T11:30:01.314Z,101168.97
2023-05-25T11:32:54.947Z,101166.97
2023-05-25T11:35:48.792Z,101157.34
2023-05-25T11:41:49.942Z,101159.72
2023-05-25T11:44:42.204Z,101158.91
2023-05-25T11:53:08.021Z,101159.72
2023-05-25T11:56:08.345Z,101161.13
2023-05-25T11:59:01.356Z,101150.88
2023-05-25T12:01:58.439Z,101152.13
2023-05-25T12:04:55.277Z,101152.84
2023-05-25T12:07:48.126Z,101152.34
2023-05-25T12:10:52.113Z,101150.56
2023-05-25T12:13:44.890Z,101147.28
2023-05-25T12:16:42.373Z,101142.53
2023-05-25T12:19:36.325Z,101145.13
2023-05-25T12:22:28.787Z,101139.72
2023-05-25T12:25:22.760Z,101131.59
2023-05-25T12:28:16.919Z,101127.03
2023-05-25T12:31:22.958Z,101133.00
2023-05-25T12:34:17.329Z,101131.59
2023-05-25T12:37:19.687Z,101130.91
2023-05-25T12:40:20.454Z,101135.09
2023-05-25T12:43:14.131Z,101133.94
2023-05-25T12:46:08.521Z,101134.59
2023-05-25T12:49:01.051Z,101142.59
2023-05-25T12:51:54.308Z,101133.41
2023-05-25T12:54:49.553Z,101132.16
2023-05-25T12:57:41.863Z,101124.78
2023-05-25T13:00:34.932Z,101128.81
2023-05-25T13:03:30.677Z,101127.66
2023-05-25T13:06:23.318Z,101131.59
2023-05-25T13:09:16.350Z,101126.03
2023-05-25T13:12:09.308Z,101120.00
2023-05-25T13:15:01.917Z,101115.97
2023-05-25T13:17:56.152Z,101120.06
2023-05-25T13:20:51.984Z,101119.63
2023-05-25T13:23:47.138Z,101120.63
2023-05-25T13:26:40.043Z,101114.00
2023-05-25T13:29:33.298Z,101108.34
2023-05-25T13:32:26.438Z,101100.03
2023-05-25T13:35:23.173Z,101105.53
2023-05-25T13:38:17.610Z,101104.16
2023-05-25T13:44:22.376Z,101097.31
2023-05-25T13:47:15.176Z,101091.88
2023-05-25T13:50:09.428Z,101100.78
2023-05-25T13:53:02.386Z,101104.03
2023-05-25T13:55:56.473Z,101089.00
2023-05-25T13:58:49.004Z,101088.81
2023-05-25T14:01:42.236Z,101087.47
2023-05-25T14:04:35.098Z,101090.66
2023-05-25T14:07:28.389Z,101096.22
2023-05-25T14:10:21.071Z,101091.44
2023-05-25T14:16:27.827Z,101086.06
2023-05-25T14:19:20.030Z,101084.31
2023-05-25T14:22:14.495Z,101078.72
2023-05-25T14:25:08.135Z,101070.34
2023-05-25T14:28:01.488Z,101076.63
2023-05-25T14:30:54.327Z,101078.88
2023-05-25T14:33:48.243Z,101086.16
2023-05-25T14:36:41.063Z,101084.13
2023-05-25T14:39:36.100Z,101082.03
2023-05-25T14:42:30.139Z,101078.97
2023-05-25T14:45:23.434Z,101086.09
2023-05-25T14:49:08.617Z,101075.03
2023-05-25T14:52:01.388Z,101081.47
2023-05-25T14:54:54.074Z,101085.09
2023-05-25T18:28:18.754Z,101054.88
2023-05-25T18:31:05.271Z,101063.69
2023-05-25T18:37:16.415Z,101059.97
2023-05-25T18:40:02.651Z,101059.50
2023-05-25T18:42:48.912Z,101056.59
2023-05-25T18:45:35.183Z,101064.13
2023-05-25T18:51:32.360Z,101066.69
2023-05-25T18:54:19.967Z,101062.28
2023-05-25T18:57:30.029Z,101074.28
2023-05-25T19:00:16.786Z,101075.13
2023-05-25T19:06:13.732Z,101088.84
2023-05-25T19:09:06.829Z,101086.78
2023-05-25T19:15:17.490Z,101092.03
2023-05-25T19:18:10.232Z,101094.72
2023-05-25T19:21:02.870Z,101093.72
2023-05-25T19:23:57.823Z,101095.94
2023-05-25T19:26:57.514Z,101106.28
2023-05-25T19:29:49.903Z,101105.13
2023-05-25T19:36:00.976Z,101118.50
2023-05-25T19:38:53.827Z,101115.81
2023-05-25T19:41:47.106Z,101120.13
2023-05-25T19:44:40.595Z,101122.28
2023-05-25T19:47:33.419Z,101126.78
2023-05-25T19:50:30.308Z,101125.41
2023-05-25T19:53:24.570Z,101126.38
2023-05-25T19:56:16.495Z,101131.66
2023-05-25T19:59:11.987Z,101125.97
2023-05-25T20:02:05.440Z,101126.97
2023-05-25T20:08:14.204Z,101132.47
2023-05-25T20:11:08.370Z,101143.31
2023-05-25T20:13:55.201Z,101135.13
2023-05-25T20:16:47.914Z,101134.75
2023-05-25T20:19:40.841Z,101140.28
2023-05-25T20:22:33.737Z,101153.53
2023-05-25T20:25:26.768Z,101149.59
2023-05-25T20:28:20.819Z,101143.31
2023-05-25T20:31:14.113Z,101147.41
2023-05-25T20:37:19.333Z,101152.25
2023-05-25T20:40:12.189Z,101149.91
2023-05-25T20:43:04.974Z,101155.28
2023-05-25T20:45:59.105Z,101161.53
2023-05-25T20:49:07.867Z,101162.59
2023-05-25T20:51:58.823Z,101155.38
2023-05-25T20:54:51.783Z,101166.13
2023-05-25T20:57:44.739Z,101162.50
2023-05-25T21:00:37.889Z,101164.47
2023-05-25T21:03:32.434Z,101173.28
2023-05-25T21:06:24.483Z,101179.72
2023-05-25T21:09:16.789Z,101173.97
2023-05-25T21:12:10.027Z,101184.09
2023-05-25T21:15:18.168Z,101182.59
2023-05-25T21:18:10.123Z,101192.53
2023-05-25T21:24:50.100Z,101178.69
2023-05-25T21:27:58.065Z,101185.97
2023-05-25T21:30:49.865Z,101179.00
2023-05-25T21:33:43.020Z,101180.81
2023-05-25T21:36:37.173Z,101183.91
2023-05-25T21:39:30.161Z,101186.97
2023-05-25T21:43:00.090Z,101192.16
2023-05-25T21:45:54.355Z,101197.34
2023-05-25T21:48:59.927Z,101203.34
2023-05-25T21:51:52.674Z,101199.84
2023-05-25T21:54:46.099Z,101201.91
2023-05-25T21:57:40.728Z,101203.59
2023-05-25T22:00:35.374Z,101206.09
2023-05-25T22:03:29.454Z,101210.44
2023-05-25T22:06:22.137Z,101214.59
2023-05-25T22:09:15.007Z,101210.25
2023-05-25T22:12:07.962Z,101211.38
2023-05-25T22:15:01.038Z,101221.03
2023-05-25T22:17:53.666Z,101224.78
2023-05-25T22:24:34.391Z,101217.66
2023-05-25T22:27:26.698Z,101220.19
2023-05-25T22:30:57.133Z,101224.38
2023-05-25T22:33:49.975Z,101216.13
2023-05-25T22:37:00.235Z,101220.34
2023-05-25T22:39:51.212Z,101222.84
2023-05-25T22:42:49.596Z,101230.66
2023-05-25T22:45:42.262Z,101230.50
2023-05-25T22:48:35.004Z,101225.06
2023-05-25T22:51:28.214Z,101227.88
2023-05-25T22:54:20.681Z,101231.19
2023-05-25T22:57:16.641Z,101230.22
2023-05-25T23:00:09.613Z,101227.91
2023-05-25T23:03:12.164Z,101217.56
2023-05-25T23:05:59.244Z,101224.66
2023-05-25T23:08:51.969Z,101221.47
2023-05-25T23:15:01.150Z,101223.50
2023-05-25T23:21:10.560Z,101219.19
2023-05-25T23:24:02.808Z,101224.44
2023-05-25T23:26:55.842Z,101222.91
2023-05-25T23:29:48.740Z,101220.91
2023-05-25T23:32:43.261Z,101225.09
2023-05-25T23:35:36.034Z,101218.63
2023-05-25T23:38:22.258Z,101217.03
2023-05-25T23:41:08.555Z,101218.13
2023-05-25T23:43:54.624Z,101216.59
2023-05-25T23:46:40.823Z,101215.97
2023-05-25T23:49:28.276Z,101216.94
2023-05-25T23:52:14.389Z,101217.63
2023-05-25T23:55:00.496Z,101212.84
2023-05-25T23:57:46.942Z,101208.06
